Flight Track Log - Related Links

Times and Time Zones

All times are in EDT time to prevent confusion due to time zone crossing. See the N522DD flight status page for this flight to view local times or setup timezone preferences in your user account.

Time Position Orientation Groundspeed Altitude Reporting Facility
EDT Latitude Longitude Course Direction KTS MPH feet Rate Location/Type
Wed 12:25:21 PM 32.2767 -88.6692 90° East 143 165 2,500  Level Memphis Center
Wed 12:27:25 PM 32.2489 -88.5950 114° Southeast 156 180 3,800 710 Climbing Memphis Center
Wed 12:28:27 PM 32.2283 -88.5464 117° Southeast 142 163 4,700 769 Climbing Memphis Center
Wed 12:29:00 PM 32.1785 -88.5238 118° Southeast  Level Estimated
Wed 12:29:22 PM 32.2133 -88.5022 112° Southeast 141 162 5,300  Level Memphis Center
Wed 12:30:00 PM 32.1476 -88.4783 90° East  Level Estimated
Wed 12:30:31 PM 32.1972 -88.4650 117° Southeast 140 161 6,100  Level Memphis Center
Wed 12:31:33 PM 32.1811 -88.4267 116° Southeast 139 160 6,700 629 Climbing Memphis Center
Wed 12:32:35 PM 32.1644 -88.3892 118° Southeast 135 155 7,400 655 Climbing Memphis Center
Wed 12:33:23 PM 32.1497 -88.3403 110° East 129 148 7,900 571 Climbing Memphis Center
Wed 12:33:38 PM 32.1469 -88.3419 207° Southwest 133 153 8,000 545 Climbing Memphis Center
Wed 12:34:40 PM 32.1311 -88.3036 116° Southeast 132 152 8,600 435 Climbing Memphis Center
Wed 12:35:42 PM 32.1142 -88.2639 117° Southeast 133 153 8,900 145 Climbing Memphis Center
Wed 12:36:44 PM 32.0950 -88.2189 117° Southeast 144 166 8,900  Level Memphis Center
Wed 12:37:46 PM 32.0750 -88.1681 115° Southeast 159 183 8,900  Level Memphis Center
Wed 12:38:48 PM 32.0500 -88.1064 116° Southeast 170 196 8,900  Level Memphis Center
Wed 12:39:50 PM 32.0294 -88.0550 115° Southeast 172 198 8,900  Level Memphis Center
Wed 12:40:52 PM 32.0086 -88.0047 116° Southeast 172 198 8,900  Level Memphis Center
Wed 12:41:54 PM 31.9867 -87.9542 117° Southeast 172 198 8,900  Level Memphis Center
Wed 12:42:56 PM 31.9669 -87.9025 114° Southeast 172 198 8,900  Level Memphis Center
Wed 12:43:58 PM 31.9433 -87.8414 114° Southeast 172 198 8,900  Level Memphis Center
Wed 12:45:00 PM 31.9200 -87.7925 119° Southeast 172 198 8,900  Level Memphis Center
Wed 12:46:02 PM 31.8950 -87.7367 118° Southeast 173 199 8,900  Level Memphis Center
Wed 12:47:11 PM 31.8747 -87.6756 111° Southeast 172 198 8,900  Level Atlanta Center
Wed 12:48:11 PM 31.8531 -87.6256 117° Southeast 172 198 8,900  Level Atlanta Center
Wed 12:49:11 PM 31.8317 -87.5733 116° Southeast 172 198 8,900  Level Atlanta Center
Wed 12:50:11 PM 31.8103 -87.5214 116° Southeast 172 198 8,900  Level Atlanta Center
Wed 12:51:11 PM 31.7908 -87.4692 114° Southeast 172 198 8,900  Level Atlanta Center
Wed 12:52:11 PM 31.7672 -87.4169 118° Southeast 177 204 8,900  Level Atlanta Center
Wed 12:53:11 PM 31.7478 -87.3675 115° Southeast 177 204 8,900  Level Atlanta Center
Wed 12:54:11 PM 31.7261 -87.3178 117° Southeast 177 204 8,900  Level Atlanta Center
Wed 12:55:11 PM 31.7025 -87.2658 118° Southeast 177 204 8,900  Level Atlanta Center
Wed 12:56:11 PM 31.6850 -87.2164 113° Southeast 177 204 8,900  Level Atlanta Center
Wed 12:59:40 PM 31.6100 -87.0419 117° Southeast 172 198 8,900  Level Jacksonville Center
Wed 01:00:40 PM 31.5889 -86.9897 115° Southeast 172 198 8,900  Level Jacksonville Center
Wed 01:01:40 PM 31.5675 -86.9400 117° Southeast 172 198 8,900  Level Jacksonville Center
Wed 01:02:40 PM 31.5461 -86.8881 116° Southeast 172 198 8,900  Level Jacksonville Center
Wed 01:03:40 PM 31.5247 -86.8383 117° Southeast 172 198 8,900  Level Jacksonville Center
Wed 01:04:40 PM 31.5033 -86.7861 116° Southeast 172 198 8,900  Level Jacksonville Center
Wed 01:05:40 PM 31.4800 -86.7342 118° Southeast 172 198 8,900  Level Jacksonville Center
Wed 01:06:40 PM 31.4586 -86.6844 117° Southeast 177 204 8,900  Level Jacksonville Center
Wed 01:06:56 PM 31.4508 -86.6597 110° East 176 203 8,900  Level Jacksonville Center
Wed 01:07:40 PM 31.4369 -86.6325 121° Southeast 177 204 8,900  Level Jacksonville Center
Wed 01:07:57 PM 31.4272 -86.6125 120° Southeast 175 201 8,900  Level Jacksonville Center
Wed 01:08:40 PM 31.4156 -86.5831 115° Southeast 177 204 8,900  Level Jacksonville Center
Wed 01:08:58 PM 31.4036 -86.5581 119° Southeast 177 204 8,900  Level Jacksonville Center
Wed 01:09:40 PM 31.3919 -86.5308 117° Southeast 177 204 8,900  Level Jacksonville Center
Wed 01:09:59 PM 31.3842 -86.5086 112° Southeast 175 201 8,900  Level Jacksonville Center
Wed 01:10:40 PM 31.3725 -86.4792 115° Southeast 177 204 8,900  Level Jacksonville Center
Wed 01:11:00 PM 31.3606 -86.4592 125° Southeast 173 199 8,900  Level Jacksonville Center
Wed 01:11:54 PM 31.3431 -86.4122 114° Southeast 174 200 8,900  Level Jacksonville Center
Wed 01:12:40 PM 31.3231 -86.3847 130° Southeast 177 204 8,900  Level Jacksonville Center
Wed 01:12:55 PM 31.3111 -86.3647 125° Southeast 169 194 8,900  Level Jacksonville Center
Wed 01:13:40 PM 31.2950 -86.3375 125° Southeast 172 198 8,900  Level Jacksonville Center
Wed 01:13:56 PM 31.2831 -86.3153 122° Southeast 178 205 8,900  Level Jacksonville Center
Wed 01:14:40 PM 31.2694 -86.2856 118° Southeast 177 204 8,900  Level Jacksonville Center
Wed 01:14:57 PM 31.2614 -86.2683 119° Southeast 175 201 8,900  Level Jacksonville Center
Wed 01:15:40 PM 31.2478 -86.2361 116° Southeast 172 198 8,900  Level Jacksonville Center
Wed 01:15:58 PM 31.2378 -86.2164 121° Southeast 176 203 8,900  Level Jacksonville Center
Wed 01:16:40 PM 31.2258 -86.1892 117° Southeast 172 198 8,900  Level Jacksonville Center
Wed 01:16:58 PM 31.2183 -86.1647 110° East 176 203 8,900  Level Jacksonville Center
Wed 01:17:53 PM 31.1986 -86.1178 116° Southeast 176 203 8,900  Level Jacksonville Center
Wed 01:18:54 PM 31.1769 -86.0661 116° Southeast 176 203 8,900  Level Jacksonville Center
Wed 01:19:55 PM 31.1553 -86.0119 115° Southeast 177 204 8,900  Level Jacksonville Center
Wed 01:20:55 PM 31.1317 -85.9578 117° Southeast 177 204 8,900  Level Jacksonville Center
Wed 01:22:02 PM 31.1100 -85.9014 114° Southeast 174 200 8,900  Level Jacksonville Center
Wed 01:23:03 PM 31.0903 -85.8522 115° Southeast 174 200 8,900  Level Jacksonville Center
Wed 01:24:04 PM 31.0664 -85.7981 117° Southeast 175 201 8,900  Level Jacksonville Center
Wed 01:25:05 PM 31.0467 -85.7489 115° Southeast 177 204 8,900  Level Jacksonville Center
Wed 01:26:06 PM 31.0228 -85.6950 117° Southeast 177 204 8,900  Level Jacksonville Center
Wed 01:27:06 PM 31.0031 -85.6411 113° Southeast 175 201 8,900  Level Jacksonville Center
Wed 01:28:07 PM 30.9811 -85.5919 117° Southeast 175 201 8,900  Level Jacksonville Center
Wed 01:29:08 PM 30.9614 -85.5381 113° Southeast 176 203 8,900  Level Jacksonville Center
Wed 01:30:09 PM 30.9394 -85.4914 119° Southeast 176 203 8,900  Level Jacksonville Center
Wed 01:31:10 PM 30.9156 -85.4375 117° Southeast 174 200 8,900  Level Jacksonville Center
Wed 01:32:16 PM 30.8936 -85.3789 114° Southeast 174 200 8,900  Level Jacksonville Center
Wed 01:33:17 PM 30.8697 -85.3275 118° Southeast 177 204 8,900  Level Jacksonville Center
Wed 01:34:18 PM 30.8497 -85.2783 115° Southeast 179 206 8,900  Level Jacksonville Center
Wed 02:02:04 PM 29.9872 -84.0989 138° Southeast 172 198 8,900  Level Jacksonville Center
Wed 02:03:00 PM 29.9785 -84.0534 137° Southeast  Level FlightAware Approximate
Wed 02:03:04 PM 29.9544 -84.0553 131° Southeast 177 204 8,900  Level Jacksonville Center
Wed 02:04:00 PM 29.9430 -84.0158 137° Southeast  Level FlightAware Approximate
Wed 02:04:04 PM 29.9214 -84.0142 133° Southeast 177 204 8,900  Level Jacksonville Center
Wed 02:05:00 PM 29.9075 -83.9783 137° Southeast  Level FlightAware Approximate
Wed 02:05:04 PM 29.8861 -83.9753 136° Southeast 172 198 8,900  Level Jacksonville Center
Wed 02:06:00 PM 29.8720 -83.9408 138° Southeast  Level FlightAware Approximate
Wed 02:06:04 PM 29.8531 -83.9367 135° Southeast 172 198 9,000  Level Jacksonville Center
Wed 02:07:04 PM 29.8200 -83.8933 131° Southeast 172 198 8,900 -100 Descending Jacksonville Center
Wed 02:08:04 PM 29.7764 -83.8664 152° Southeast 172 198 8,800  Descending Jacksonville Center
Wed 02:09:04 PM 29.7347 -83.8397 151° Southeast 172 198 8,900 50 Climbing Jacksonville Center
Wed 02:10:04 PM 29.6911 -83.8131 152° Southeast 172 198 8,900  Level Jacksonville Center
Wed 02:11:04 PM 29.6475 -83.7864 152° Southeast 177 204 8,900  Level Jacksonville Center
Wed 02:12:04 PM 29.6058 -83.7597 151° Southeast 177 204 8,900 50 Level Jacksonville Center
Wed 02:13:04 PM 29.5644 -83.7306 148° Southeast 177 204 9,000 50 Climbing Jacksonville Center
Wed 02:14:04 PM 29.5208 -83.7039 152° Southeast 177 204 9,000  Level Jacksonville Center
Wed 02:15:04 PM 29.4750 -83.6728 149° Southeast 177 204 9,000  Level Jacksonville Center
Wed 02:16:04 PM 29.4333 -83.6461 151° Southeast 177 204 9,000  Level Jacksonville Center
Wed 02:17:04 PM 29.3897 -83.6172 150° Southeast 177 204 9,000  Level Jacksonville Center
Wed 02:18:04 PM 29.3481 -83.5931 153° Southeast 177 204 9,000  Level Jacksonville Center
Wed 02:19:04 PM 29.3044 -83.5642 150° Southeast 177 204 9,000  Level Jacksonville Center
Wed 02:20:04 PM 29.2628 -83.5378 151° Southeast 177 204 9,000  Level Jacksonville Center
Wed 02:21:04 PM 29.2192 -83.5111 152° Southeast 177 204 9,000  Level Jacksonville Center
Wed 02:22:04 PM 29.1775 -83.4825 149° Southeast 177 204 9,000  Level Jacksonville Center
Wed 02:23:04 PM 29.1400 -83.4608 153° Southeast 177 204 9,000  Level Jacksonville Center
Wed 02:24:04 PM 29.0922 -83.4297 150° Southeast 177 204 9,000  Level Jacksonville Center
Wed 02:25:04 PM 29.0483 -83.4008 150° Southeast 177 204 9,000  Level Jacksonville Center
Wed 02:26:04 PM 29.0047 -83.3744 152° Southeast 177 204 9,000  Level Jacksonville Center
Wed 02:27:04 PM 28.9631 -83.3458 149° Southeast 177 204 9,000  Level Jacksonville Center
Wed 02:28:04 PM 28.9192 -83.3194 152° Southeast 177 204 9,000  Level Jacksonville Center
Wed 02:29:04 PM 28.8778 -83.2933 151° Southeast 177 204 9,000  Level Jacksonville Center
Wed 02:30:04 PM 28.8339 -83.2647 150° Southeast 177 204 9,000  Level Jacksonville Center
Wed 02:31:04 PM 28.7922 -83.2386 151° Southeast 177 204 9,000  Level Jacksonville Center
Wed 02:32:04 PM 28.7483 -83.2100 150° Southeast 177 204 9,000 -50 Level Jacksonville Center
Wed 02:33:04 PM 28.7067 -83.1836 151° Southeast 177 204 8,900 -300 Descending Jacksonville Center
Wed 02:34:04 PM 28.6589 -83.1553 153° Southeast 184 212 8,400 -532 Descending Jacksonville Center
Wed 02:35:42 PM 28.5833 -83.1000 147° Southeast 197 227 7,500 -515 Descending Tampa TRACON
Wed 02:36:47 PM 28.5333 -83.0667 150° Southeast 196 226 7,000 -333 Descending Tampa TRACON
Wed 02:37:48 PM 28.4833 -83.0500 164° South 188 216 6,800 -350 Descending Tampa TRACON
Wed 02:38:47 PM 28.4333 -83.0167 150° Southeast 185 213 6,300 -400 Descending Tampa TRACON
Wed 02:39:48 PM 28.4000 -82.9833 139° Southeast 186 214 6,000 -194 Descending Tampa TRACON
Wed 02:40:20 PM 28.3736 -82.9750 164° South 189 217 6,000  Level Miami Center
Wed 02:41:22 PM 28.3322 -82.9489 151° Southeast 177 204 6,000 -290 Level Miami Center
Wed 02:42:24 PM 28.2831 -82.9350 166° South 180 207 5,400 -677 Descending Miami Center
Wed 02:43:26 PM 28.2206 -82.9181 167° South 186 214 4,600 -774 Descending Miami Center
Wed 02:44:28 PM 28.1731 -82.9028 164° South 187 215 3,800 -677 Descending Miami Center
Wed 02:45:30 PM 28.1261 -82.8872 164° South 184 212 3,200 -390 Descending Miami Center
Wed 02:46:31 PM 28.0811 -82.8722 164° South 177 204 3,000 -244 Descending Miami Center
Wed 02:47:33 PM 28.0375 -82.8569 163° South 171 197 2,700 -339 Descending Miami Center
Wed 02:48:35 PM 27.9947 -82.8325 153° Southeast 171 197 2,300 -484 Descending Miami Center
Wed 02:49:37 PM 27.9475 -82.7961 146° Southeast 172 198 1,700 -484 Descending Miami Center
Wed 02:50:39 PM 27.9172 -82.7597 133° Southeast 169 194 1,300 -532 Descending Miami Center
Wed 02:51:41 PM 27.9069 -82.7292 111° Southeast 129 148 600 -390 Descending Miami Center
Wed 02:52:42 PM 27.9058 -82.7011 93° East 122 140 500 -98 Descending Miami Center
Wed 02:54:00 PM 27.9000 -82.6833 156° South  Level FlightAware Approximate
Wed 03:01:00 PM 27.9100 -82.6875 156° South  Level Estimated

Login

Don't have an account? Register now (free) for customized features, flight alerts, and more!